Stations météo

réclame
Mon MeteoGroup
Motril, Espagne (8485): Température de l'air & dewpoint: 11.02.2019 13:00:00 - 17.02.2019 13:00:00 (CET)Motril, Espagne (8485): Vitesse du vent & gusts: 11.02.2019 13:00:00 - 17.02.2019 13:00:00 (CET)Motril, Espagne (8485): Direction du vent: 11.02.2019 13:00:00 - 17.02.2019 13:00:00 (CET)Motril, Espagne (8485): Quantités de précipitations: 11.02.2019 13:00:00 - 17.02.2019 13:00:00 (CET)
Date & Time tt [°C] td [°C] ff [km/h] ff [knt] fx [km/h] fx [knt] dd rr [mm]
17.02.2019 13:00:00 15,6 9,9 14 8 29 16 SW -
17.02.2019 12:00:00 15,7 10,3 14 8 29 16 WSW 0,0
17.02.2019 11:00:00 15,4 9,1 6 4 17 9 W 0,0
17.02.2019 10:00:00 17,9 10,3 2 1 6 4 SE 0,0
17.02.2019 09:00:00 13,8 11,0 0 0 6 4 N 0,0
17.02.2019 08:00:00 10,3 8,6 6 3 19 10 NNE 0,0
17.02.2019 07:00:00 10,2 8,6 4 2 10 5 NNW -
17.02.2019 06:00:00 10,4 8,8 4 2 10 5 NNE 0,0
17.02.2019 05:00:00 10,7 9,0 4 2 11 6 NNE 0,0
17.02.2019 04:00:00 10,6 8,9 5 3 11 6 N 0,0
17.02.2019 03:00:00 11,0 9,3 3 2 9 5 NNE 0,0
17.02.2019 02:00:00 10,7 9,1 3 2 9 5 E 0,0
17.02.2019 01:00:00 10,6 8,9 5 3 8 5 NNE -
17.02.2019 00:00:00 11,1 9,0 3 1 8 4 NW 0,0
16.02.2019 23:00:00 12,5 9,3 5 3 11 6 W 0,0
16.02.2019 22:00:00 13,3 9,9 4 2 14 8 ENE 0,0
16.02.2019 21:00:00 13,4 9,5 6 3 26 14 NNE 0,0
16.02.2019 20:00:00 14,2 9,8 8 4 21 11 ENE 0,0
16.02.2019 19:00:00 14,6 10,4 8 5 29 16 E -
16.02.2019 18:00:00 15,2 10,0 10 5 40 21 E 0,0
16.02.2019 17:00:00 15,5 9,2 24 13 57 31 E 0,0
16.02.2019 16:00:00 16,0 8,7 33 18 56 30 E 0,0
16.02.2019 15:00:00 17,3 9,0 20 11 40 22 E 0,0
16.02.2019 14:00:00 17,7 8,8 18 10 38 21 E 0,0
16.02.2019 13:00:00 17,4 8,8 17 9 34 18 E -
16.02.2019 12:00:00 16,4 8,6 22 12 35 19 E 0,0
16.02.2019 11:00:00 17,3 8,2 4 2 8 4 S 0,0
16.02.2019 10:00:00 16,6 8,6 3 2 6 4 SE 0,0
16.02.2019 09:00:00 11,4 8,4 1 1 8 4 NNE 0,0
16.02.2019 08:00:00 8,3 4,5 3 1 10 6 NNE 0,0
16.02.2019 07:00:00 8,2 6,5 3 2 10 6 NNE -
16.02.2019 06:00:00 8,7 7,6 6 3 13 7 NNE 0,0
16.02.2019 05:00:00 9,1 8,5 1 0 8 4 WSW 0,0
16.02.2019 04:00:00 8,9 8,3 4 2 8 4 NNE 0,0
16.02.2019 03:00:00 9,5 8,9 3 1 8 4 NE 0,0
16.02.2019 02:00:00 9,7 8,9 2 1 9 5 NE 0,0
16.02.2019 01:00:00 9,5 8,6 1 1 7 4 ENE -
16.02.2019 00:00:00 10,2 9,1 3 2 7 4 NNE 0,0
15.02.2019 23:00:00 10,2 8,5 3 1 8 4 NNW 0,0
15.02.2019 22:00:00 11,2 9,0 6 3 9 5 NE 0,0
15.02.2019 21:00:00 11,8 9,0 2 1 9 5 NNW 0,0
15.02.2019 20:00:00 13,1 9,2 0 0 9 5 NE 0,0
15.02.2019 19:00:00 14,4 10,0 4 2 21 11 NE -
15.02.2019 18:00:00 15,1 10,5 13 7 27 15 E 0,0
15.02.2019 17:00:00 14,9 10,3 19 10 29 16 ESE 0,0
15.02.2019 16:00:00 15,1 9,7 19 11 29 15 E 0,0
15.02.2019 15:00:00 15,4 9,5 15 8 23 12 ESE 0,0
15.02.2019 14:00:00 14,9 8,8 14 8 24 13 E 0,0
15.02.2019 13:00:00 14,4 10,0 19 10 28 15 ESE -
15.02.2019 12:00:00 15,1 10,3 20 11 45 25 SE 0,0
15.02.2019 11:00:00 15,2 10,4 15 8 19 10 SE 0,0
15.02.2019 10:00:00 15,5 10,7 6 3 9 5 E 0,0
15.02.2019 09:00:00 12,0 9,2 5 3 9 5 NE 0,0
15.02.2019 08:00:00 10,3 8,4 5 3 7 4 NNE 0,0
15.02.2019 07:00:00 10,9 9,3 3 1 6 3 N -
15.02.2019 06:00:00 11,4 9,3 3 2 9 5 NE 0,0
15.02.2019 05:00:00 10,4 8,8 5 3 8 4 NE 0,0
15.02.2019 04:00:00 11,1 9,5 5 3 9 5 NE 0,0
15.02.2019 03:00:00 11,9 9,6 5 3 8 5 NE 0,0
15.02.2019 02:00:00 13,4 10,6 3 2 7 4 E 0,0
15.02.2019 01:00:00 13,8 10,6 5 3 15 8 E -
15.02.2019 00:00:00 14,2 10,8 10 5 16 9 ESE 0,0
14.02.2019 23:00:00 14,2 10,2 10 5 21 11 E 0,0
14.02.2019 22:00:00 14,4 11,2 14 7 22 12 E 0,0
14.02.2019 21:00:00 14,4 10,4 10 5 16 9 E 0,0
14.02.2019 20:00:00 14,3 10,1 10 5 19 10 ESE 0,0
14.02.2019 19:00:00 14,3 9,9 10 5 22 12 E -
14.02.2019 18:00:00 14,4 9,6 18 10 27 15 ESE 0,0
14.02.2019 17:00:00 14,8 10,0 22 12 32 17 ESE 0,0
14.02.2019 16:00:00 15,5 9,6 20 11 24 13 ESE 0,0
14.02.2019 15:00:00 15,7 8,9 16 9 25 14 SE 0,0
14.02.2019 14:00:00 15,9 8,2 16 9 22 12 ESE 0,0
14.02.2019 13:00:00 16,1 8,1 8 5 13 7 SSE -
14.02.2019 12:00:00 15,6 7,4 6 3 11 6 S 0,0
14.02.2019 11:00:00 16,0 7,0 5 3 8 4 SSE 0,0
14.02.2019 10:00:00 17,5 8,6 1 0 4 2 SE 0,0
14.02.2019 09:00:00 11,5 6,8 2 1 10 5 N 0,0
14.02.2019 08:00:00 8,5 5,8 6 3 11 6 NNE 0,0
14.02.2019 07:00:00 8,8 6,6 5 3 11 6 NNE -
14.02.2019 06:00:00 8,9 7,2 3 2 9 5 ESE 0,0
14.02.2019 05:00:00 8,5 7,1 5 3 10 5 NNE 0,0
14.02.2019 04:00:00 8,8 7,1 5 3 10 5 NE 0,0
14.02.2019 03:00:00 9,7 8,1 5 3 9 5 NE 0,0
14.02.2019 02:00:00 8,8 7,4 4 2 9 5 NNE 0,0
14.02.2019 01:00:00 9,2 7,6 4 2 6 4 NE -
14.02.2019 00:00:00 9,9 7,5 3 2 8 4 NW 0,0
13.02.2019 23:00:00 11,2 8,1 6 3 14 8 NE 0,0
13.02.2019 22:00:00 11,2 7,3 1 0 9 5 NE 0,0
13.02.2019 21:00:00 13,3 8,6 4 2 12 7 ENE 0,0
13.02.2019 20:00:00 13,6 8,9 5 3 16 9 ENE 0,0
13.02.2019 19:00:00 14,3 9,1 10 6 24 13 E -
13.02.2019 18:00:00 15,5 9,2 16 9 27 15 E 0,0
13.02.2019 17:00:00 16,0 9,4 16 8 27 14 ESE 0,0
13.02.2019 16:00:00 16,1 9,1 18 10 31 17 ESE 0,0
13.02.2019 15:00:00 15,9 9,6 26 14 33 18 ESE 0,0
13.02.2019 14:00:00 16,1 8,1 21 11 32 18 ESE 0,0
13.02.2019 13:00:00 - - - - - - - -
13.02.2019 12:00:00 15,9 6,6 16 9 24 13 ESE 0,0
13.02.2019 11:00:00 17,0 6,5 2 1 9 5 SSE 0,0
13.02.2019 10:00:00 14,9 5,7 2 1 6 3 SW 0,0
13.02.2019 09:00:00 10,9 5,9 2 1 8 4 NW 0,0
13.02.2019 08:00:00 8,6 4,2 3 2 9 5 NE 0,0
13.02.2019 07:00:00 9,1 4,9 5 3 10 5 NE -
13.02.2019 06:00:00 8,4 5,3 4 2 7 4 NE 0,0
13.02.2019 05:00:00 8,7 6,2 2 1 6 3 NE 0,0
13.02.2019 04:00:00 8,7 6,2 2 1 7 4 NNE 0,0
13.02.2019 03:00:00 9,4 6,8 2 1 9 5 NNE 0,0
13.02.2019 02:00:00 10,8 6,9 4 2 - - NE -
13.02.2019 01:00:00 10,2 6,9 5 3 9 5 NE -
13.02.2019 00:00:00 11,1 7,0 5 3 10 5 NNE 0,0
12.02.2019 23:00:00 13,0 8,9 9 5 19 10 E 0,0
12.02.2019 22:00:00 13,6 9,3 14 8 28 15 E 0,0
12.02.2019 21:00:00 14,1 7,9 12 7 30 16 E 0,0
12.02.2019 20:00:00 14,4 8,6 16 9 32 17 E 0,0
12.02.2019 19:00:00 14,8 7,8 19 10 34 19 E -
12.02.2019 18:00:00 15,2 9,8 27 14 40 22 E 0,0
12.02.2019 17:00:00 15,7 9,8 23 12 41 22 E 0,0
12.02.2019 16:00:00 16,4 10,0 22 12 37 20 E 0,0
12.02.2019 15:00:00 16,2 10,3 22 12 36 19 ESE 0,0
12.02.2019 14:00:00 16,2 8,7 23 12 40 21 E 0,0
12.02.2019 13:00:00 - - - - - - - -
12.02.2019 12:00:00 16,6 8,8 22 12 37 20 E 0,0
12.02.2019 11:00:00 15,7 9,2 23 13 32 17 E 0,0
12.02.2019 10:00:00 15,2 7,5 10 5 24 13 E 0,0
12.02.2019 09:00:00 13,4 8,9 6 3 18 10 ENE 0,0
12.02.2019 08:00:00 12,3 8,4 5 3 14 8 NE 0,0
12.02.2019 07:00:00 11,1 8,5 3 1 8 5 NE -
12.02.2019 06:00:00 11,0 7,9 4 2 13 7 NW 0,0
12.02.2019 05:00:00 10,9 7,6 5 3 9 5 NE 0,0
12.02.2019 04:00:00 10,4 7,3 1 0 6 4 NNE 0,0
12.02.2019 03:00:00 11,2 8,1 0 0 8 4 WSW 0,0
12.02.2019 02:00:00 11,1 8,2 5 3 9 5 NW 0,0
12.02.2019 01:00:00 12,0 8,1 3 1 5 3 ESE -
12.02.2019 00:00:00 13,4 9,1 3 1 8 4 E 0,0
11.02.2019 23:00:00 13,1 9,2 3 1 6 3 E 0,0
11.02.2019 22:00:00 13,4 9,3 1 0 9 5 N 0,0
11.02.2019 21:00:00 13,7 10,3 4 2 9 5 NE 0,0
11.02.2019 20:00:00 14,5 12,0 1 1 5 3 NE 0,0
11.02.2019 19:00:00 15,5 12,1 2 1 9 5 NW -
11.02.2019 18:00:00 16,6 12,6 5 3 10 5 SSW 0,0
11.02.2019 17:00:00 17,0 12,7 5 3 10 5 SSW 0,0
11.02.2019 16:00:00 17,2 12,7 6 3 11 6 SSW 0,0
11.02.2019 15:00:00 18,3 12,7 5 3 10 5 S 0,0
11.02.2019 14:00:00 16,6 12,6 7 4 11 6 S 0,0
11.02.2019 13:00:00 16,8 11,1 6 3 12 6 S -

tt = Température de l'air
td = dewpoint
ff = Vitesse du vent
fx = gusts
dd = Direction du vent
rr = Quantités de précipitations

stations d'obs. à proximité